AAL223 KCLL-KBOI
Flight info
| Callsign | AAL223 |
|---|---|
| Flight time | 3h 3m |
| Altitude | 36000 |
| Route | BRKAT UKW ELEYE CHE PIH SICOY/N0322F160 V500 REAPS KOURT4 |
| Aircraft | B738/M-SDE2E3FGHIRWXY/LB1 |
Departure
| Time | 2026-04-21 18:05 |
|---|---|
| Airport | Easterwood Field (KCLL) |
Arrival
| Time | 2026-04-21 21:08 |
|---|---|
| Airport | Boise Air Terminal/Gowen Field (KBOI) |
| Time | Latitude | Longitude | Altitude | Speed | Heading |
|---|---|---|---|---|---|
| 2026-04-21 17:56 | 30.59328 | -96.36593 | 321 ft | 0 kts | 322° |
| 2026-04-21 17:57 | 30.59320 | -96.36586 | 322 ft | 2 kts | 323° |
| 2026-04-21 17:58 | 30.59307 | -96.36575 | 320 ft | 2 kts | 323° |
| 2026-04-21 17:58 | 30.59293 | -96.36564 | 319 ft | 2 kts | 349° |
| 2026-04-21 17:58 | 30.59277 | -96.36565 | 321 ft | 2 kts | 36° |
| 2026-04-21 17:58 | 30.59273 | -96.36569 | 322 ft | 0 kts | 50° |
| 2026-04-21 17:59 | 30.59281 | -96.36557 | 321 ft | 5 kts | 52° |
| 2026-04-21 18:00 | 30.59272 | -96.36506 | 320 ft | 9 kts | 137° |
| 2026-04-21 18:00 | 30.59222 | -96.36456 | 322 ft | 9 kts | 139° |
| 2026-04-21 18:00 | 30.59174 | -96.36407 | 325 ft | 10 kts | 139° |
| 2026-04-21 18:00 | 30.59117 | -96.36349 | 324 ft | 12 kts | 138° |
| 2026-04-21 18:01 | 30.59044 | -96.36286 | 321 ft | 14 kts | 153° |
| 2026-04-21 18:01 | 30.58946 | -96.36251 | 322 ft | 15 kts | 168° |
| 2026-04-21 18:01 | 30.58844 | -96.36224 | 322 ft | 15 kts | 167° |
| 2026-04-21 18:01 | 30.58731 | -96.36199 | 321 ft | 18 kts | 169° |
| 2026-04-21 18:02 | 30.58650 | -96.36183 | 320 ft | 18 kts | 171° |
| 2026-04-21 18:02 | 30.58491 | -96.36150 | 320 ft | 17 kts | 169° |
| 2026-04-21 18:02 | 30.58378 | -96.36124 | 319 ft | 16 kts | 169° |
| 2026-04-21 18:02 | 30.58269 | -96.36098 | 319 ft | 16 kts | 168° |
| 2026-04-21 18:03 | 30.58165 | -96.36074 | 319 ft | 15 kts | 168° |
| 2026-04-21 18:03 | 30.58064 | -96.36051 | 318 ft | 14 kts | 168° |
| 2026-04-21 18:03 | 30.57970 | -96.36029 | 318 ft | 14 kts | 168° |
| 2026-04-21 18:03 | 30.57878 | -96.36006 | 318 ft | 13 kts | 168° |
| 2026-04-21 18:04 | 30.57790 | -96.35986 | 318 ft | 13 kts | 158° |
| 2026-04-21 18:04 | 30.57779 | -96.35895 | 317 ft | 12 kts | 69° |
| 2026-04-21 18:04 | 30.57872 | -96.35878 | 318 ft | 42 kts | 348° |
| 2026-04-21 18:04 | 30.58464 | -96.36014 | 319 ft | 128 kts | 348° |
| 2026-04-21 18:05 | 30.59541 | -96.36257 | 670 ft | 171 kts | 354° |
| 2026-04-21 18:05 | 30.60795 | -96.36487 | 1431 ft | 197 kts | 359° |
| 2026-04-21 18:05 | 30.62183 | -96.36602 | 2324 ft | 202 kts | 1° |
| 2026-04-21 18:05 | 30.63656 | -96.36692 | 2897 ft | 227 kts | 360° |
| 2026-04-21 18:06 | 30.65324 | -96.36798 | 3183 ft | 259 kts | 358° |
| 2026-04-21 18:06 | 30.67230 | -96.36927 | 3552 ft | 287 kts | 357° |
| 2026-04-21 18:06 | 30.69251 | -96.37071 | 4377 ft | 290 kts | 355° |
| 2026-04-21 18:06 | 30.71244 | -96.37220 | 5400 ft | 288 kts | 353° |
| 2026-04-21 18:07 | 30.73218 | -96.37361 | 6508 ft | 281 kts | 353° |
| 2026-04-21 18:07 | 30.75175 | -96.37501 | 7351 ft | 285 kts | 352° |
| 2026-04-21 18:07 | 30.77163 | -96.37660 | 8141 ft | 289 kts | 352° |
| 2026-04-21 18:07 | 30.78496 | -96.37769 | 8683 ft | 291 kts | 352° |
| 2026-04-21 18:08 | 30.81217 | -96.37987 | 9774 ft | 296 kts | 352° |
| 2026-04-21 18:08 | 30.83303 | -96.38154 | 10374 ft | 307 kts | 352° |
| 2026-04-21 18:08 | 30.85527 | -96.38333 | 10531 ft | 334 kts | 352° |
| 2026-04-21 18:08 | 30.87869 | -96.38518 | 10935 ft | 347 kts | 352° |
| 2026-04-21 18:09 | 30.90298 | -96.38705 | 11595 ft | 352 kts | 352° |
| 2026-04-21 18:09 | 30.92747 | -96.38894 | 12396 ft | 353 kts | 352° |
| 2026-04-21 18:09 | 30.94368 | -96.39071 | 12813 ft | 353 kts | 347° |
| 2026-04-21 18:09 | 30.97508 | -96.40132 | 13790 ft | 351 kts | 333° |
| 2026-04-21 18:10 | 30.99733 | -96.41306 | 14486 ft | 353 kts | 331° |
| 2026-04-21 18:10 | 31.01971 | -96.42528 | 15094 ft | 357 kts | 331° |
| 2026-04-21 18:10 | 31.04230 | -96.43772 | 15730 ft | 361 kts | 331° |
| 2026-04-21 18:10 | 31.06516 | -96.45028 | 16385 ft | 365 kts | 331° |
| 2026-04-21 18:11 | 31.08827 | -96.46291 | 17021 ft | 369 kts | 331° |
| 2026-04-21 18:11 | 31.11140 | -96.47551 | 17556 ft | 375 kts | 332° |
| 2026-04-21 18:11 | 31.13516 | -96.48840 | 18178 ft | 378 kts | 332° |
| 2026-04-21 18:11 | 31.15909 | -96.50134 | 18816 ft | 380 kts | 332° |
| 2026-04-21 18:12 | 31.18314 | -96.51432 | 19401 ft | 382 kts | 332° |
| 2026-04-21 18:12 | 31.20733 | -96.52739 | 19976 ft | 384 kts | 332° |
| 2026-04-21 18:12 | 31.23164 | -96.54052 | 20535 ft | 386 kts | 332° |
| 2026-04-21 18:12 | 31.25614 | -96.55375 | 21103 ft | 389 kts | 332° |
| 2026-04-21 18:13 | 31.28076 | -96.56707 | 21648 ft | 391 kts | 331° |
| 2026-04-21 18:13 | 31.30556 | -96.58049 | 22171 ft | 394 kts | 331° |
| 2026-04-21 18:13 | 31.33054 | -96.59401 | 22693 ft | 397 kts | 331° |
| 2026-04-21 18:13 | 31.35562 | -96.60760 | 23222 ft | 399 kts | 331° |
| 2026-04-21 18:14 | 31.40655 | -96.63525 | 23914 ft | 411 kts | 331° |
| 2026-04-21 18:14 | 31.43248 | -96.64932 | 24399 ft | 410 kts | 331° |
| 2026-04-21 18:14 | 31.45834 | -96.66334 | 24880 ft | 410 kts | 330° |
| 2026-04-21 18:15 | 31.48431 | -96.67744 | 25309 ft | 412 kts | 330° |
| 2026-04-21 18:15 | 31.51037 | -96.69161 | 25691 ft | 415 kts | 330° |
| 2026-04-21 18:15 | 31.53662 | -96.70589 | 26095 ft | 416 kts | 330° |
| 2026-04-21 18:15 | 31.56293 | -96.72021 | 26500 ft | 418 kts | 330° |
| 2026-04-21 18:16 | 31.58935 | -96.73461 | 26905 ft | 420 kts | 330° |
| 2026-04-21 18:16 | 31.60689 | -96.74417 | 27150 ft | 421 kts | 330° |
| 2026-04-21 18:16 | 31.63348 | -96.75867 | 27505 ft | 424 kts | 330° |
| 2026-04-21 18:16 | 31.66933 | -96.77826 | 27725 ft | 432 kts | 330° |
| 2026-04-21 18:17 | 31.69659 | -96.79315 | 28144 ft | 432 kts | 330° |
| 2026-04-21 18:17 | 31.72385 | -96.80803 | 28583 ft | 432 kts | 330° |
| 2026-04-21 18:17 | 31.75119 | -96.82297 | 28909 ft | 434 kts | 330° |
| 2026-04-21 18:17 | 31.77859 | -96.83796 | 29246 ft | 437 kts | 330° |
| 2026-04-21 18:18 | 31.79688 | -96.84798 | 29505 ft | 437 kts | 330° |
| 2026-04-21 18:18 | 31.82432 | -96.86298 | 30125 ft | 433 kts | 329° |
| 2026-04-21 18:18 | 31.85160 | -96.87792 | 30519 ft | 433 kts | 329° |
| 2026-04-21 18:18 | 31.87900 | -96.89296 | 30767 ft | 436 kts | 329° |
| 2026-04-21 18:19 | 31.90668 | -96.90818 | 30962 ft | 442 kts | 329° |
| 2026-04-21 18:19 | 31.96297 | -96.93915 | 31342 ft | 447 kts | 329° |
| 2026-04-21 18:19 | 31.99092 | -96.95448 | 31905 ft | 439 kts | 329° |
| 2026-04-21 18:20 | 32.01839 | -96.96953 | 32503 ft | 432 kts | 329° |
| 2026-04-21 18:20 | 32.04546 | -96.98439 | 32955 ft | 428 kts | 328° |
| 2026-04-21 18:20 | 32.07242 | -96.99925 | 33239 ft | 428 kts | 328° |
| 2026-04-21 18:20 | 32.09947 | -97.01419 | 33490 ft | 429 kts | 328° |
| 2026-04-21 18:21 | 32.12606 | -97.02888 | 33840 ft | 427 kts | 328° |
| 2026-04-21 18:21 | 32.15280 | -97.04364 | 34309 ft | 422 kts | 328° |
| 2026-04-21 18:21 | 32.17937 | -97.05831 | 34514 ft | 423 kts | 328° |
| 2026-04-21 18:22 | 32.23334 | -97.08825 | 34698 ft | 430 kts | 328° |
| 2026-04-21 18:22 | 32.26031 | -97.10317 | 35036 ft | 427 kts | 328° |
| 2026-04-21 18:22 | 32.28719 | -97.11804 | 35382 ft | 426 kts | 328° |
| 2026-04-21 18:22 | 32.31401 | -97.13290 | 35607 ft | 426 kts | 328° |
| 2026-04-21 18:23 | 32.34089 | -97.14781 | 35792 ft | 428 kts | 328° |
| 2026-04-21 18:23 | 32.36749 | -97.16259 | 36000 ft | 428 kts | 328° |
| 2026-04-21 18:23 | 32.39442 | -97.17754 | 36312 ft | 426 kts | 328° |
| 2026-04-21 18:23 | 32.42123 | -97.19243 | 36568 ft | 426 kts | 329° |
| 2026-04-21 18:24 | 32.44812 | -97.20740 | 36583 ft | 430 kts | 329° |
| 2026-04-21 18:24 | 32.50255 | -97.23773 | 36913 ft | 431 kts | 329° |
| 2026-04-21 18:24 | 32.52958 | -97.25277 | 37238 ft | 428 kts | 328° |
| 2026-04-21 18:25 | 32.55649 | -97.26775 | 37462 ft | 427 kts | 328° |
| 2026-04-21 18:25 | 32.58343 | -97.28279 | 37598 ft | 429 kts | 328° |
| 2026-04-21 18:25 | 32.61042 | -97.29788 | 37711 ft | 430 kts | 328° |
| 2026-04-21 18:25 | 32.63716 | -97.31283 | 37920 ft | 430 kts | 328° |
| 2026-04-21 18:26 | 32.66412 | -97.32789 | 38172 ft | 428 kts | 328° |
| 2026-04-21 18:26 | 32.69107 | -97.34297 | 38290 ft | 429 kts | 329° |
| 2026-04-21 18:26 | 32.71821 | -97.35819 | 38226 ft | 433 kts | 329° |
| 2026-04-21 18:27 | 32.77265 | -97.38870 | 38240 ft | 432 kts | 329° |
| 2026-04-21 18:27 | 32.79184 | -97.39945 | 38269 ft | 431 kts | 329° |
| 2026-04-21 18:28 | 32.84558 | -97.42961 | 38254 ft | 429 kts | 329° |
| 2026-04-21 18:28 | 32.89951 | -97.45993 | 38245 ft | 428 kts | 329° |
| 2026-04-21 18:29 | 32.95333 | -97.49024 | 38254 ft | 428 kts | 329° |
| 2026-04-21 18:29 | 33.00718 | -97.52061 | 38273 ft | 428 kts | 329° |
| 2026-04-21 18:30 | 33.06110 | -97.55105 | 38242 ft | 429 kts | 329° |
| 2026-04-21 18:30 | 33.11514 | -97.58161 | 38238 ft | 430 kts | 329° |
| 2026-04-21 18:31 | 33.16895 | -97.61207 | 38220 ft | 430 kts | 329° |
| 2026-04-21 18:31 | 33.22308 | -97.64275 | 38214 ft | 431 kts | 329° |
| 2026-04-21 18:32 | 33.27722 | -97.67348 | 38217 ft | 431 kts | 329° |
| 2026-04-21 18:32 | 33.33145 | -97.70431 | 38246 ft | 431 kts | 329° |
| 2026-04-21 18:33 | 33.38575 | -97.73523 | 38202 ft | 433 kts | 329° |
| 2026-04-21 18:33 | 33.43970 | -97.76598 | 38216 ft | 432 kts | 329° |
| 2026-04-21 18:34 | 33.49399 | -97.79697 | 38224 ft | 433 kts | 330° |
| 2026-04-21 18:34 | 33.54699 | -97.83081 | 38180 ft | 428 kts | 319° |
| 2026-04-21 18:35 | 33.59269 | -97.87557 | 38204 ft | 425 kts | 316° |
| 2026-04-21 18:35 | 33.63815 | -97.92105 | 38187 ft | 426 kts | 316° |
| 2026-04-21 18:36 | 33.68347 | -97.96606 | 38189 ft | 426 kts | 316° |
| 2026-04-21 18:36 | 33.72924 | -98.01133 | 38198 ft | 426 kts | 317° |
| 2026-04-21 18:37 | 33.77501 | -98.05658 | 38201 ft | 426 kts | 317° |
| 2026-04-21 18:37 | 33.82082 | -98.10193 | 38194 ft | 427 kts | 317° |
| 2026-04-21 18:38 | 33.86664 | -98.14736 | 38199 ft | 427 kts | 317° |
| 2026-04-21 18:38 | 33.91215 | -98.19256 | 38191 ft | 427 kts | 317° |
| 2026-04-21 18:39 | 33.95797 | -98.23813 | 38201 ft | 428 kts | 317° |
| 2026-04-21 18:39 | 34.00386 | -98.28384 | 38185 ft | 429 kts | 317° |
| 2026-04-21 18:40 | 34.04985 | -98.32971 | 38192 ft | 429 kts | 317° |
| 2026-04-21 18:40 | 34.08812 | -98.36794 | 38183 ft | 430 kts | 317° |
| 2026-04-21 18:41 | 34.14165 | -98.42147 | 38181 ft | 430 kts | 317° |
| 2026-04-21 18:41 | 34.18775 | -98.46765 | 38206 ft | 431 kts | 318° |
| 2026-04-21 18:42 | 34.23386 | -98.51390 | 38176 ft | 431 kts | 318° |
| 2026-04-21 18:42 | 34.28000 | -98.56027 | 38180 ft | 431 kts | 318° |
| 2026-04-21 18:43 | 34.32610 | -98.60665 | 38170 ft | 431 kts | 318° |
| 2026-04-21 18:43 | 34.37188 | -98.65279 | 38161 ft | 431 kts | 318° |
| 2026-04-21 18:44 | 34.41796 | -98.69929 | 38169 ft | 431 kts | 318° |
| 2026-04-21 18:44 | 34.46399 | -98.74582 | 38160 ft | 431 kts | 319° |
| 2026-04-21 18:45 | 34.51003 | -98.79243 | 38148 ft | 431 kts | 319° |
| 2026-04-21 18:45 | 34.55589 | -98.83926 | 38155 ft | 430 kts | 316° |
| 2026-04-21 18:46 | 34.59789 | -98.89011 | 38181 ft | 429 kts | 313° |
| 2026-04-21 18:46 | 34.63899 | -98.94277 | 38173 ft | 429 kts | 312° |
| 2026-04-21 18:47 | 34.68016 | -98.99531 | 38165 ft | 429 kts | 313° |
| 2026-04-21 18:47 | 34.72155 | -99.04767 | 38145 ft | 430 kts | 313° |
| 2026-04-21 18:48 | 34.76303 | -99.09998 | 38136 ft | 430 kts | 313° |
| 2026-04-21 18:48 | 34.80425 | -99.15197 | 38148 ft | 430 kts | 313° |
| 2026-04-21 18:49 | 34.84573 | -99.20437 | 38169 ft | 430 kts | 313° |
| 2026-04-21 18:49 | 34.88026 | -99.24806 | 38151 ft | 430 kts | 313° |
| 2026-04-21 18:50 | 34.92873 | -99.30949 | 38147 ft | 431 kts | 314° |
| 2026-04-21 18:50 | 34.96995 | -99.36182 | 38134 ft | 431 kts | 314° |
| 2026-04-21 18:51 | 35.01147 | -99.41462 | 38127 ft | 431 kts | 314° |
| 2026-04-21 18:51 | 35.05297 | -99.46747 | 38103 ft | 431 kts | 314° |
| 2026-04-21 18:52 | 35.09442 | -99.52035 | 38099 ft | 431 kts | 314° |
| 2026-04-21 18:52 | 35.13557 | -99.57291 | 38109 ft | 430 kts | 314° |
| 2026-04-21 18:53 | 35.17694 | -99.62585 | 38087 ft | 431 kts | 314° |
| 2026-04-21 18:53 | 35.21828 | -99.67886 | 38113 ft | 431 kts | 315° |
| 2026-04-21 18:54 | 35.25963 | -99.73195 | 38088 ft | 431 kts | 315° |
| 2026-04-21 18:54 | 35.30096 | -99.78509 | 38103 ft | 431 kts | 315° |
| 2026-04-21 18:55 | 35.33533 | -99.82931 | 38082 ft | 431 kts | 314° |
| 2026-04-21 18:55 | 35.38333 | -99.89122 | 38064 ft | 432 kts | 315° |
| 2026-04-21 18:56 | 35.42467 | -99.94464 | 38073 ft | 432 kts | 315° |
| 2026-04-21 18:56 | 35.46601 | -99.99810 | 38067 ft | 432 kts | 315° |
| 2026-04-21 18:57 | 35.50710 | -100.05134 | 38077 ft | 433 kts | 315° |
| 2026-04-21 18:57 | 35.54849 | -100.10504 | 38054 ft | 433 kts | 315° |
| 2026-04-21 18:58 | 35.58987 | -100.15881 | 38069 ft | 433 kts | 315° |
| 2026-04-21 18:58 | 35.63126 | -100.21271 | 38031 ft | 434 kts | 315° |
| 2026-04-21 18:59 | 35.67262 | -100.26665 | 38050 ft | 434 kts | 315° |
| 2026-04-21 18:59 | 35.71403 | -100.32074 | 38056 ft | 434 kts | 315° |
| 2026-04-21 19:00 | 35.75514 | -100.37452 | 38033 ft | 435 kts | 316° |
| 2026-04-21 19:00 | 35.79655 | -100.42879 | 38052 ft | 434 kts | 316° |
| 2026-04-21 19:01 | 35.83798 | -100.48318 | 38027 ft | 436 kts | 315° |
| 2026-04-21 19:01 | 35.87920 | -100.53742 | 38099 ft | 437 kts | 316° |
| 2026-04-21 19:02 | 35.92079 | -100.59222 | 38078 ft | 438 kts | 315° |
| 2026-04-21 19:02 | 35.96252 | -100.64727 | 38050 ft | 440 kts | 315° |
| 2026-04-21 19:03 | 36.00430 | -100.70246 | 38050 ft | 440 kts | 315° |
| 2026-04-21 19:03 | 36.04587 | -100.75747 | 38011 ft | 442 kts | 316° |
| 2026-04-21 19:04 | 36.08779 | -100.81305 | 38024 ft | 442 kts | 315° |
| 2026-04-21 19:04 | 36.12973 | -100.86875 | 38006 ft | 443 kts | 315° |
| 2026-04-21 19:05 | 36.17172 | -100.92461 | 38023 ft | 443 kts | 315° |
| 2026-04-21 19:05 | 36.21342 | -100.98019 | 38010 ft | 444 kts | 315° |
| 2026-04-21 19:06 | 36.25538 | -101.03619 | 38016 ft | 443 kts | 316° |
| 2026-04-21 19:06 | 36.29728 | -101.09222 | 38002 ft | 443 kts | 316° |
| 2026-04-21 19:07 | 36.33899 | -101.14809 | 37994 ft | 442 kts | 315° |
| 2026-04-21 19:07 | 36.38076 | -101.20413 | 37990 ft | 441 kts | 315° |
| 2026-04-21 19:08 | 36.42210 | -101.25968 | 37976 ft | 441 kts | 315° |
| 2026-04-21 19:08 | 36.46362 | -101.31557 | 37959 ft | 440 kts | 315° |
| 2026-04-21 19:09 | 36.50501 | -101.37138 | 37962 ft | 439 kts | 315° |
| 2026-04-21 19:09 | 36.54638 | -101.42726 | 37961 ft | 439 kts | 315° |
| 2026-04-21 19:10 | 36.58740 | -101.48276 | 38035 ft | 439 kts | 315° |
| 2026-04-21 19:10 | 36.62868 | -101.53871 | 38033 ft | 439 kts | 315° |
| 2026-04-21 19:11 | 36.66996 | -101.59475 | 38044 ft | 439 kts | 315° |
| 2026-04-21 19:11 | 36.71119 | -101.65082 | 38024 ft | 439 kts | 315° |
| 2026-04-21 19:12 | 36.75246 | -101.70704 | 37991 ft | 439 kts | 315° |
| 2026-04-21 19:12 | 36.79342 | -101.76293 | 38009 ft | 440 kts | 315° |
| 2026-04-21 19:13 | 36.83467 | -101.81932 | 38028 ft | 440 kts | 315° |
| 2026-04-21 19:13 | 36.87599 | -101.87590 | 38067 ft | 441 kts | 315° |
| 2026-04-21 19:14 | 36.91727 | -101.93253 | 38080 ft | 441 kts | 315° |
| 2026-04-21 19:14 | 36.95835 | -101.98898 | 38077 ft | 442 kts | 315° |
| 2026-04-21 19:15 | 36.99966 | -102.04583 | 38058 ft | 442 kts | 314° |
| 2026-04-21 19:15 | 37.04096 | -102.10277 | 38017 ft | 442 kts | 315° |
| 2026-04-21 19:16 | 37.08227 | -102.15984 | 37993 ft | 442 kts | 314° |
| 2026-04-21 19:16 | 37.12354 | -102.21694 | 37895 ft | 442 kts | 314° |
| 2026-04-21 19:17 | 37.18510 | -102.30234 | 37905 ft | 442 kts | 314° |
| 2026-04-21 19:17 | 37.22630 | -102.35959 | 37891 ft | 442 kts | 314° |
| 2026-04-21 19:18 | 37.26748 | -102.41690 | 37872 ft | 442 kts | 314° |
| 2026-04-21 19:18 | 37.30861 | -102.47427 | 37900 ft | 442 kts | 314° |
| 2026-04-21 19:19 | 37.34942 | -102.53130 | 37872 ft | 442 kts | 314° |
| 2026-04-21 19:19 | 37.39050 | -102.58879 | 37892 ft | 442 kts | 314° |
| 2026-04-21 19:20 | 37.43154 | -102.64631 | 37869 ft | 442 kts | 313° |
| 2026-04-21 19:20 | 37.47245 | -102.70379 | 37895 ft | 442 kts | 314° |
| 2026-04-21 19:21 | 37.51325 | -102.76120 | 37876 ft | 442 kts | 313° |
| 2026-04-21 19:21 | 37.55424 | -102.81894 | 37886 ft | 442 kts | 313° |
| 2026-04-21 19:22 | 37.59519 | -102.87677 | 37873 ft | 442 kts | 313° |
| 2026-04-21 19:22 | 37.63582 | -102.93427 | 37896 ft | 442 kts | 313° |
| 2026-04-21 19:23 | 37.67671 | -102.99222 | 37876 ft | 443 kts | 313° |
| 2026-04-21 19:23 | 37.71762 | -103.05030 | 37892 ft | 442 kts | 313° |
| 2026-04-21 19:24 | 37.75855 | -103.10852 | 37872 ft | 443 kts | 313° |
| 2026-04-21 19:24 | 37.79941 | -103.16672 | 37881 ft | 443 kts | 312° |
| 2026-04-21 19:25 | 37.84001 | -103.22468 | 37885 ft | 443 kts | 312° |
| 2026-04-21 19:25 | 37.88089 | -103.28315 | 37883 ft | 444 kts | 313° |
| 2026-04-21 19:26 | 37.92177 | -103.34170 | 37894 ft | 444 kts | 312° |
| 2026-04-21 19:26 | 37.96267 | -103.40042 | 37887 ft | 445 kts | 312° |
| 2026-04-21 19:27 | 37.98311 | -103.42980 | 38040 ft | 445 kts | 312° |
| 2026-04-21 19:27 | 38.00330 | -103.45886 | 38051 ft | 445 kts | 312° |
| 2026-04-21 19:27 | 38.04418 | -103.51772 | 38038 ft | 445 kts | 312° |
| 2026-04-21 19:28 | 38.08511 | -103.57679 | 38056 ft | 445 kts | 312° |
| 2026-04-21 19:28 | 38.12606 | -103.63597 | 38024 ft | 446 kts | 311° |
| 2026-04-21 19:29 | 38.16670 | -103.69484 | 37995 ft | 446 kts | 311° |
| 2026-04-21 19:29 | 38.20763 | -103.75423 | 37941 ft | 447 kts | 311° |
| 2026-04-21 19:30 | 38.24851 | -103.81367 | 37904 ft | 446 kts | 311° |
| 2026-04-21 19:30 | 38.28937 | -103.87319 | 37874 ft | 446 kts | 311° |
| 2026-04-21 19:31 | 38.33016 | -103.93271 | 37867 ft | 446 kts | 310° |
| 2026-04-21 19:31 | 38.37062 | -103.99188 | 37875 ft | 446 kts | 310° |
| 2026-04-21 19:32 | 38.41135 | -104.05152 | 37869 ft | 446 kts | 310° |
| 2026-04-21 19:32 | 38.45204 | -104.11122 | 37872 ft | 446 kts | 310° |
| 2026-04-21 19:33 | 38.49271 | -104.17099 | 37874 ft | 446 kts | 310° |
| 2026-04-21 19:33 | 38.53308 | -104.23041 | 37871 ft | 446 kts | 309° |
| 2026-04-21 19:34 | 38.57366 | -104.29030 | 37871 ft | 446 kts | 309° |
| 2026-04-21 19:34 | 38.61414 | -104.35018 | 37884 ft | 445 kts | 309° |
| 2026-04-21 19:35 | 38.67480 | -104.44016 | 37999 ft | 445 kts | 309° |
| 2026-04-21 19:36 | 38.71490 | -104.49968 | 38056 ft | 444 kts | 309° |
| 2026-04-21 19:36 | 38.75520 | -104.55964 | 38112 ft | 444 kts | 308° |
| 2026-04-21 19:37 | 38.79544 | -104.61964 | 38138 ft | 443 kts | 309° |
| 2026-04-21 19:37 | 38.83557 | -104.67966 | 38136 ft | 443 kts | 308° |
| 2026-04-21 19:38 | 38.87538 | -104.73920 | 38150 ft | 442 kts | 308° |
| 2026-04-21 19:38 | 38.90893 | -104.78952 | 38111 ft | 443 kts | 308° |
| 2026-04-21 19:39 | 38.95536 | -104.85930 | 38059 ft | 442 kts | 309° |
| 2026-04-21 19:39 | 38.99523 | -104.91927 | 38030 ft | 441 kts | 308° |
| 2026-04-21 19:40 | 39.03482 | -104.97892 | 37975 ft | 441 kts | 308° |
| 2026-04-21 19:40 | 39.07458 | -105.03892 | 37964 ft | 440 kts | 308° |
| 2026-04-21 19:41 | 39.11427 | -105.09902 | 37950 ft | 441 kts | 308° |
| 2026-04-21 19:41 | 39.15394 | -105.15925 | 37955 ft | 440 kts | 308° |
| 2026-04-21 19:42 | 39.19354 | -105.21945 | 37954 ft | 441 kts | 308° |
| 2026-04-21 19:42 | 39.23291 | -105.27939 | 37953 ft | 441 kts | 307° |
| 2026-04-21 19:43 | 39.27249 | -105.33976 | 37964 ft | 441 kts | 308° |
| 2026-04-21 19:43 | 39.31207 | -105.40025 | 37974 ft | 440 kts | 308° |
| 2026-04-21 19:44 | 39.35154 | -105.46067 | 37987 ft | 440 kts | 308° |
| 2026-04-21 19:44 | 39.39067 | -105.52080 | 38003 ft | 440 kts | 308° |
| 2026-04-21 19:45 | 39.43004 | -105.58127 | 38006 ft | 440 kts | 308° |
| 2026-04-21 19:45 | 39.46943 | -105.64186 | 38001 ft | 440 kts | 308° |
| 2026-04-21 19:46 | 39.50885 | -105.70269 | 38022 ft | 441 kts | 307° |
| 2026-04-21 19:46 | 39.54831 | -105.76370 | 38010 ft | 442 kts | 307° |
| 2026-04-21 19:47 | 39.58763 | -105.82454 | 37991 ft | 444 kts | 307° |
| 2026-04-21 19:47 | 39.62716 | -105.88593 | 37996 ft | 444 kts | 307° |
| 2026-04-21 19:48 | 39.66666 | -105.94740 | 38019 ft | 444 kts | 307° |
| 2026-04-21 19:48 | 39.70611 | -106.00888 | 38003 ft | 443 kts | 307° |
| 2026-04-21 19:49 | 39.74518 | -106.06987 | 38011 ft | 443 kts | 307° |
| 2026-04-21 19:49 | 39.78451 | -106.13141 | 38038 ft | 443 kts | 307° |
| 2026-04-21 19:50 | 39.81723 | -106.18269 | 38039 ft | 443 kts | 307° |
| 2026-04-21 19:50 | 39.86333 | -106.25507 | 38033 ft | 445 kts | 307° |
| 2026-04-21 19:51 | 39.90274 | -106.31708 | 38045 ft | 445 kts | 307° |
| 2026-04-21 19:51 | 39.94190 | -106.37883 | 38030 ft | 445 kts | 307° |
| 2026-04-21 19:52 | 39.98129 | -106.44107 | 38054 ft | 445 kts | 306° |
| 2026-04-21 19:52 | 40.02063 | -106.50333 | 38031 ft | 445 kts | 306° |
| 2026-04-21 19:53 | 40.06000 | -106.56579 | 38037 ft | 445 kts | 306° |
| 2026-04-21 19:53 | 40.09931 | -106.62828 | 38021 ft | 445 kts | 306° |
| 2026-04-21 19:54 | 40.13832 | -106.69040 | 38046 ft | 445 kts | 306° |
| 2026-04-21 19:54 | 40.17757 | -106.75304 | 38020 ft | 446 kts | 306° |
| 2026-04-21 19:55 | 40.21681 | -106.81578 | 38048 ft | 445 kts | 306° |
| 2026-04-21 19:55 | 40.25596 | -106.87852 | 38038 ft | 444 kts | 306° |
| 2026-04-21 19:56 | 40.29472 | -106.94075 | 38070 ft | 444 kts | 306° |
| 2026-04-21 19:56 | 40.33378 | -107.00358 | 38118 ft | 444 kts | 306° |
| 2026-04-21 19:57 | 40.37279 | -107.06647 | 38154 ft | 444 kts | 305° |
| 2026-04-21 19:57 | 40.41176 | -107.12944 | 38172 ft | 444 kts | 305° |
| 2026-04-21 19:58 | 40.45041 | -107.19200 | 38164 ft | 445 kts | 305° |
| 2026-04-21 19:58 | 40.48930 | -107.25508 | 38179 ft | 445 kts | 305° |
| 2026-04-21 19:59 | 40.52760 | -107.31875 | 38165 ft | 443 kts | 301° |
| 2026-04-21 19:59 | 40.56076 | -107.38653 | 38121 ft | 440 kts | 297° |
| 2026-04-21 20:00 | 40.59266 | -107.45525 | 38129 ft | 440 kts | 297° |
| 2026-04-21 20:00 | 40.62456 | -107.52340 | 38124 ft | 440 kts | 297° |
| 2026-04-21 20:01 | 40.65690 | -107.59179 | 38092 ft | 440 kts | 297° |
| 2026-04-21 20:01 | 40.68931 | -107.66014 | 38063 ft | 440 kts | 297° |
| 2026-04-21 20:02 | 40.72167 | -107.72845 | 38015 ft | 439 kts | 297° |
| 2026-04-21 20:02 | 40.75377 | -107.79637 | 37982 ft | 439 kts | 297° |
| 2026-04-21 20:03 | 40.78606 | -107.86486 | 37964 ft | 439 kts | 297° |
| 2026-04-21 20:03 | 40.81820 | -107.93321 | 37971 ft | 438 kts | 297° |
| 2026-04-21 20:04 | 40.85033 | -108.00167 | 37958 ft | 438 kts | 297° |
| 2026-04-21 20:04 | 40.88216 | -108.06965 | 37965 ft | 438 kts | 297° |
| 2026-04-21 20:05 | 40.91414 | -108.13812 | 37951 ft | 438 kts | 297° |
| 2026-04-21 20:05 | 40.94611 | -108.20671 | 37967 ft | 437 kts | 297° |
| 2026-04-21 20:06 | 40.97800 | -108.27527 | 37937 ft | 438 kts | 297° |
| 2026-04-21 20:06 | 41.00961 | -108.34338 | 37942 ft | 437 kts | 297° |
| 2026-04-21 20:07 | 41.04139 | -108.41201 | 37941 ft | 437 kts | 296° |
| 2026-04-21 20:07 | 41.07310 | -108.48066 | 37968 ft | 436 kts | 296° |
| 2026-04-21 20:08 | 41.10478 | -108.54939 | 37958 ft | 437 kts | 296° |
| 2026-04-21 20:08 | 41.13624 | -108.61781 | 37932 ft | 438 kts | 296° |
| 2026-04-21 20:09 | 41.16787 | -108.68673 | 37928 ft | 437 kts | 296° |
| 2026-04-21 20:09 | 41.19944 | -108.75566 | 37920 ft | 437 kts | 296° |
| 2026-04-21 20:10 | 41.23093 | -108.82460 | 37933 ft | 437 kts | 296° |
| 2026-04-21 20:10 | 41.26241 | -108.89368 | 37928 ft | 437 kts | 296° |
| 2026-04-21 20:11 | 41.29363 | -108.96235 | 37900 ft | 437 kts | 296° |
| 2026-04-21 20:11 | 41.32503 | -109.03154 | 37903 ft | 437 kts | 296° |
| 2026-04-21 20:12 | 41.35642 | -109.10089 | 37911 ft | 437 kts | 296° |
| 2026-04-21 20:12 | 41.38245 | -109.15852 | 37911 ft | 437 kts | 296° |
| 2026-04-21 20:13 | 41.41881 | -109.23921 | 37909 ft | 437 kts | 296° |
| 2026-04-21 20:13 | 41.45010 | -109.30880 | 37892 ft | 438 kts | 296° |
| 2026-04-21 20:14 | 41.48133 | -109.37842 | 37895 ft | 437 kts | 296° |
| 2026-04-21 20:14 | 41.51254 | -109.44817 | 37927 ft | 438 kts | 296° |
| 2026-04-21 20:15 | 41.54351 | -109.51754 | 37896 ft | 438 kts | 295° |
| 2026-04-21 20:15 | 41.57462 | -109.58739 | 37871 ft | 438 kts | 295° |
| 2026-04-21 20:16 | 41.60570 | -109.65730 | 37871 ft | 437 kts | 295° |
| 2026-04-21 20:16 | 41.63667 | -109.72715 | 37872 ft | 437 kts | 295° |
| 2026-04-21 20:17 | 41.66739 | -109.79662 | 37865 ft | 437 kts | 295° |
| 2026-04-21 20:17 | 41.69826 | -109.86656 | 37888 ft | 437 kts | 295° |
| 2026-04-21 20:18 | 41.72394 | -109.92489 | 37883 ft | 437 kts | 295° |
| 2026-04-21 20:18 | 41.75996 | -110.00689 | 37888 ft | 437 kts | 295° |
| 2026-04-21 20:19 | 41.79058 | -110.07677 | 37884 ft | 438 kts | 295° |
| 2026-04-21 20:19 | 41.82136 | -110.14716 | 37947 ft | 438 kts | 295° |
| 2026-04-21 20:20 | 41.85216 | -110.21777 | 37972 ft | 439 kts | 294° |
| 2026-04-21 20:20 | 41.88295 | -110.28854 | 38039 ft | 439 kts | 294° |
| 2026-04-21 20:21 | 41.91375 | -110.35952 | 38040 ft | 440 kts | 294° |
| 2026-04-21 20:21 | 41.94435 | -110.43016 | 38067 ft | 441 kts | 294° |
| 2026-04-21 20:22 | 41.97515 | -110.50144 | 38071 ft | 442 kts | 294° |
| 2026-04-21 20:22 | 42.02139 | -110.60881 | 38021 ft | 443 kts | 294° |
| 2026-04-21 20:23 | 42.03681 | -110.64470 | 37913 ft | 443 kts | 294° |
| 2026-04-21 20:23 | 42.05222 | -110.68060 | 37915 ft | 444 kts | 294° |
| 2026-04-21 20:23 | 42.08306 | -110.75259 | 37904 ft | 444 kts | 294° |
| 2026-04-21 20:24 | 42.11391 | -110.82476 | 37935 ft | 444 kts | 294° |
| 2026-04-21 20:24 | 42.14454 | -110.89663 | 37888 ft | 445 kts | 294° |
| 2026-04-21 20:25 | 42.17525 | -110.96881 | 37895 ft | 443 kts | 294° |
| 2026-04-21 20:25 | 42.20583 | -111.04092 | 37875 ft | 443 kts | 294° |
| 2026-04-21 20:26 | 42.23631 | -111.11290 | 37876 ft | 442 kts | 294° |
| 2026-04-21 20:26 | 42.26667 | -111.18481 | 37873 ft | 441 kts | 293° |
| 2026-04-21 20:27 | 42.29671 | -111.25615 | 37888 ft | 440 kts | 293° |
| 2026-04-21 20:27 | 42.32684 | -111.32787 | 37902 ft | 438 kts | 293° |
| 2026-04-21 20:28 | 42.35685 | -111.39947 | 37910 ft | 437 kts | 293° |
| 2026-04-21 20:28 | 42.38675 | -111.47099 | 37906 ft | 436 kts | 293° |
| 2026-04-21 20:29 | 42.41634 | -111.54195 | 37881 ft | 436 kts | 293° |
| 2026-04-21 20:29 | 42.44611 | -111.61351 | 37876 ft | 435 kts | 292° |
| 2026-04-21 20:30 | 42.47578 | -111.68496 | 37880 ft | 436 kts | 292° |
| 2026-04-21 20:30 | 42.50523 | -111.75614 | 37910 ft | 436 kts | 292° |
| 2026-04-21 20:31 | 42.53490 | -111.82801 | 37901 ft | 438 kts | 292° |
| 2026-04-21 20:31 | 42.56464 | -111.90020 | 37905 ft | 439 kts | 292° |
| 2026-04-21 20:32 | 42.59444 | -111.97273 | 37877 ft | 441 kts | 292° |
| 2026-04-21 20:32 | 42.62428 | -112.04550 | 37880 ft | 442 kts | 292° |
| 2026-04-21 20:33 | 42.65399 | -112.11817 | 37875 ft | 444 kts | 292° |
| 2026-04-21 20:33 | 42.68400 | -112.19173 | 37875 ft | 446 kts | 292° |
| 2026-04-21 20:34 | 42.71403 | -112.26553 | 37870 ft | 446 kts | 292° |
| 2026-04-21 20:34 | 42.74407 | -112.33958 | 37849 ft | 448 kts | 292° |
| 2026-04-21 20:35 | 42.77391 | -112.41329 | 37854 ft | 447 kts | 292° |
| 2026-04-21 20:35 | 42.80382 | -112.48735 | 37856 ft | 446 kts | 292° |
| 2026-04-21 20:36 | 42.83363 | -112.56136 | 37825 ft | 446 kts | 291° |
| 2026-04-21 20:36 | 42.86337 | -112.63553 | 37809 ft | 445 kts | 290° |
| 2026-04-21 20:37 | 42.88399 | -112.71301 | 37914 ft | 430 kts | 277° |
| 2026-04-21 20:37 | 42.89957 | -112.79145 | 37931 ft | 432 kts | 278° |
| 2026-04-21 20:38 | 42.91603 | -112.87042 | 37887 ft | 433 kts | 278° |
| 2026-04-21 20:38 | 42.93236 | -112.94960 | 37851 ft | 433 kts | 278° |
| 2026-04-21 20:39 | 42.94888 | -113.02881 | 37830 ft | 433 kts | 277° |
| 2026-04-21 20:39 | 42.96475 | -113.10787 | 37778 ft | 436 kts | 278° |
| 2026-04-21 20:40 | 42.98121 | -113.18757 | 37783 ft | 437 kts | 278° |
| 2026-04-21 20:40 | 42.99768 | -113.26757 | 37743 ft | 438 kts | 278° |
| 2026-04-21 20:41 | 43.00593 | -113.30800 | 37149 ft | 445 kts | 278° |
| 2026-04-21 20:41 | 43.01418 | -113.34829 | 36989 ft | 434 kts | 278° |
| 2026-04-21 20:41 | 43.02228 | -113.38796 | 36340 ft | 435 kts | 278° |
| 2026-04-21 20:41 | 43.03026 | -113.42718 | 36213 ft | 423 kts | 278° |
| 2026-04-21 20:42 | 43.03804 | -113.46562 | 35643 ft | 424 kts | 278° |
| 2026-04-21 20:42 | 43.04581 | -113.50393 | 35344 ft | 418 kts | 277° |
| 2026-04-21 20:42 | 43.05354 | -113.54232 | 35016 ft | 413 kts | 277° |
| 2026-04-21 20:42 | 43.06122 | -113.58022 | 34452 ft | 415 kts | 277° |
| 2026-04-21 20:43 | 43.06883 | -113.61780 | 34231 ft | 408 kts | 277° |
| 2026-04-21 20:43 | 43.07641 | -113.65535 | 33775 ft | 408 kts | 277° |
| 2026-04-21 20:43 | 43.08391 | -113.69253 | 33335 ft | 405 kts | 277° |
| 2026-04-21 20:43 | 43.09134 | -113.72947 | 33002 ft | 400 kts | 277° |
| 2026-04-21 20:44 | 43.09868 | -113.76606 | 32594 ft | 398 kts | 277° |
| 2026-04-21 20:44 | 43.10586 | -113.80194 | 32232 ft | 395 kts | 277° |
| 2026-04-21 20:44 | 43.11309 | -113.83805 | 31866 ft | 392 kts | 277° |
| 2026-04-21 20:44 | 43.12025 | -113.87394 | 31505 ft | 389 kts | 277° |
| 2026-04-21 20:45 | 43.12735 | -113.90953 | 31148 ft | 386 kts | 277° |
| 2026-04-21 20:45 | 43.13431 | -113.94490 | 30794 ft | 383 kts | 277° |
| 2026-04-21 20:45 | 43.14115 | -113.98006 | 30479 ft | 381 kts | 276° |
| 2026-04-21 20:45 | 43.14793 | -114.01509 | 30112 ft | 379 kts | 276° |
| 2026-04-21 20:46 | 43.15467 | -114.04986 | 29770 ft | 377 kts | 277° |
| 2026-04-21 20:46 | 43.16138 | -114.08449 | 29339 ft | 375 kts | 276° |
| 2026-04-21 20:46 | 43.16798 | -114.11841 | 28977 ft | 372 kts | 276° |
| 2026-04-21 20:46 | 43.17468 | -114.15259 | 28582 ft | 370 kts | 276° |
| 2026-04-21 20:47 | 43.18134 | -114.18650 | 28227 ft | 367 kts | 276° |
| 2026-04-21 20:47 | 43.18792 | -114.22007 | 27901 ft | 363 kts | 276° |
| 2026-04-21 20:47 | 43.19442 | -114.25335 | 27522 ft | 361 kts | 276° |
| 2026-04-21 20:47 | 43.20087 | -114.28649 | 27183 ft | 358 kts | 276° |
| 2026-04-21 20:48 | 43.20725 | -114.31930 | 26860 ft | 355 kts | 276° |
| 2026-04-21 20:48 | 43.21358 | -114.35197 | 26507 ft | 353 kts | 276° |
| 2026-04-21 20:48 | 43.21986 | -114.38441 | 26095 ft | 351 kts | 276° |
| 2026-04-21 20:48 | 43.22601 | -114.41621 | 25765 ft | 349 kts | 275° |
| 2026-04-21 20:49 | 43.23218 | -114.44824 | 25440 ft | 346 kts | 275° |
| 2026-04-21 20:49 | 43.23831 | -114.48011 | 25075 ft | 346 kts | 275° |
| 2026-04-21 20:49 | 43.24445 | -114.51203 | 24718 ft | 345 kts | 275° |
| 2026-04-21 20:49 | 43.25054 | -114.54378 | 24421 ft | 343 kts | 275° |
| 2026-04-21 20:50 | 43.25662 | -114.57554 | 24016 ft | 345 kts | 275° |
| 2026-04-21 20:50 | 43.26272 | -114.60743 | 23644 ft | 346 kts | 275° |
| 2026-04-21 20:50 | 43.26881 | -114.63935 | 23253 ft | 346 kts | 275° |
| 2026-04-21 20:50 | 43.27488 | -114.67121 | 22873 ft | 345 kts | 275° |
| 2026-04-21 20:51 | 43.28085 | -114.70251 | 22514 ft | 342 kts | 275° |
| 2026-04-21 20:51 | 43.28682 | -114.73394 | 22153 ft | 340 kts | 275° |
| 2026-04-21 20:51 | 43.29275 | -114.76522 | 21822 ft | 337 kts | 275° |
| 2026-04-21 20:51 | 43.29863 | -114.79627 | 21486 ft | 335 kts | 276° |
| 2026-04-21 20:52 | 43.30447 | -114.82716 | 21145 ft | 333 kts | 276° |
| 2026-04-21 20:52 | 43.31025 | -114.85784 | 20822 ft | 331 kts | 276° |
| 2026-04-21 20:52 | 43.31600 | -114.88837 | 20508 ft | 329 kts | 276° |
| 2026-04-21 20:52 | 43.32170 | -114.91872 | 20199 ft | 328 kts | 277° |
| 2026-04-21 20:53 | 43.32736 | -114.94895 | 19863 ft | 327 kts | 277° |
| 2026-04-21 20:53 | 43.33293 | -114.97871 | 19538 ft | 326 kts | 277° |
| 2026-04-21 20:53 | 43.33856 | -115.00879 | 19249 ft | 324 kts | 277° |
| 2026-04-21 20:53 | 43.34409 | -115.03826 | 19172 ft | 315 kts | 277° |
| 2026-04-21 20:54 | 43.34956 | -115.06767 | 18751 ft | 322 kts | 277° |
| 2026-04-21 20:54 | 43.35509 | -115.09752 | 18507 ft | 323 kts | 278° |
| 2026-04-21 20:54 | 43.36069 | -115.12776 | 18129 ft | 332 kts | 278° |
| 2026-04-21 20:54 | 43.36642 | -115.15874 | 17760 ft | 336 kts | 278° |
| 2026-04-21 20:55 | 43.37219 | -115.18993 | 17306 ft | 337 kts | 278° |
| 2026-04-21 20:55 | 43.37792 | -115.22092 | 17008 ft | 333 kts | 278° |
| 2026-04-21 20:55 | 43.38352 | -115.25129 | 16668 ft | 332 kts | 278° |
| 2026-04-21 20:55 | 43.38914 | -115.28194 | 16331 ft | 330 kts | 278° |
| 2026-04-21 20:56 | 43.39470 | -115.31237 | 15997 ft | 327 kts | 278° |
| 2026-04-21 20:56 | 43.40022 | -115.34250 | 15701 ft | 324 kts | 278° |
| 2026-04-21 20:56 | 43.40575 | -115.37256 | 15380 ft | 324 kts | 278° |
| 2026-04-21 20:56 | 43.41128 | -115.40260 | 15032 ft | 324 kts | 278° |
| 2026-04-21 20:57 | 43.41681 | -115.43264 | 14745 ft | 324 kts | 278° |
| 2026-04-21 20:57 | 43.42234 | -115.46281 | 14355 ft | 327 kts | 278° |
| 2026-04-21 20:57 | 43.42781 | -115.49270 | 14054 ft | 327 kts | 278° |
| 2026-04-21 20:57 | 43.43331 | -115.52301 | 13728 ft | 324 kts | 278° |
| 2026-04-21 20:58 | 43.43873 | -115.55294 | 13345 ft | 321 kts | 278° |
| 2026-04-21 20:58 | 43.44411 | -115.58238 | 13024 ft | 313 kts | 278° |
| 2026-04-21 20:58 | 43.45080 | -115.61073 | 12645 ft | 312 kts | 288° |
| 2026-04-21 20:58 | 43.45984 | -115.63753 | 12386 ft | 305 kts | 290° |
| 2026-04-21 20:59 | 43.46888 | -115.66367 | 12064 ft | 300 kts | 289° |
| 2026-04-21 20:59 | 43.47751 | -115.68959 | 11796 ft | 296 kts | 288° |
| 2026-04-21 20:59 | 43.48603 | -115.71538 | 11466 ft | 295 kts | 290° |
| 2026-04-21 20:59 | 43.49437 | -115.74069 | 11147 ft | 293 kts | 288° |
| 2026-04-21 21:00 | 43.50265 | -115.76633 | 10862 ft | 293 kts | 289° |
| 2026-04-21 21:00 | 43.51103 | -115.79217 | 10577 ft | 299 kts | 288° |
| 2026-04-21 21:00 | 43.51961 | -115.81868 | 10275 ft | 307 kts | 289° |
| 2026-04-21 21:00 | 43.52832 | -115.84574 | 10038 ft | 307 kts | 289° |
| 2026-04-21 21:01 | 43.53703 | -115.87255 | 9749 ft | 308 kts | 289° |
| 2026-04-21 21:01 | 43.54285 | -115.89038 | 9577 ft | 308 kts | 289° |
| 2026-04-21 21:01 | 43.55151 | -115.91725 | 9269 ft | 305 kts | 289° |
| 2026-04-21 21:01 | 43.56275 | -115.95217 | 8888 ft | 298 kts | 289° |
| 2026-04-21 21:02 | 43.57112 | -115.97822 | 8604 ft | 297 kts | 289° |
| 2026-04-21 21:02 | 43.57945 | -116.00416 | 8402 ft | 293 kts | 289° |
| 2026-04-21 21:02 | 43.58759 | -116.02949 | 8301 ft | 285 kts | 289° |
| 2026-04-21 21:02 | 43.59569 | -116.05421 | 8157 ft | 280 kts | 291° |
| 2026-04-21 21:03 | 43.60119 | -116.07024 | 8082 ft | 278 kts | 291° |
| 2026-04-21 21:03 | 43.60942 | -116.09404 | 7940 ft | 272 kts | 290° |
| 2026-04-21 21:03 | 43.61745 | -116.11742 | 7704 ft | 269 kts | 290° |
| 2026-04-21 21:03 | 43.62541 | -116.14080 | 7448 ft | 269 kts | 291° |
| 2026-04-21 21:04 | 43.63604 | -116.17183 | 7101 ft | 270 kts | 291° |
| 2026-04-21 21:04 | 43.64407 | -116.19529 | 6820 ft | 271 kts | 290° |
| 2026-04-21 21:04 | 43.65213 | -116.21883 | 6565 ft | 270 kts | 291° |
| 2026-04-21 21:04 | 43.65743 | -116.23431 | 6356 ft | 270 kts | 291° |
| 2026-04-21 21:05 | 43.66532 | -116.25766 | 6099 ft | 266 kts | 288° |
| 2026-04-21 21:05 | 43.66792 | -116.28151 | 5657 ft | 239 kts | 249° |
| 2026-04-21 21:05 | 43.66137 | -116.30184 | 5195 ft | 223 kts | 236° |
| 2026-04-21 21:05 | 43.65227 | -116.31837 | 4682 ft | 217 kts | 222° |
| 2026-04-21 21:06 | 43.63677 | -116.33479 | 4065 ft | 207 kts | 193° |
| 2026-04-21 21:06 | 43.62742 | -116.33616 | 3798 ft | 197 kts | 172° |
| 2026-04-21 21:06 | 43.61523 | -116.33150 | 3818 ft | 168 kts | 156° |
| 2026-04-21 21:06 | 43.60518 | -116.32402 | 3888 ft | 170 kts | 147° |
| 2026-04-21 21:07 | 43.59638 | -116.31333 | 3803 ft | 172 kts | 134° |
| 2026-04-21 21:07 | 43.58948 | -116.29942 | 3691 ft | 177 kts | 120° |
| 2026-04-21 21:07 | 43.58439 | -116.28435 | 3488 ft | 170 kts | 120° |
| 2026-04-21 21:07 | 43.57958 | -116.27026 | 3279 ft | 157 kts | 121° |
| 2026-04-21 21:08 | 43.57522 | -116.25754 | 3121 ft | 138 kts | 122° |
| 2026-04-21 21:08 | 43.57124 | -116.24597 | 2915 ft | 131 kts | 119° |
| 2026-04-21 21:08 | 43.56739 | -116.23482 | 2845 ft | 113 kts | 116° |
| 2026-04-21 21:08 | 43.56625 | -116.23050 | 2852 ft | 16 kts | 66° |
| 2026-04-21 21:09 | 43.56708 | -116.22981 | 2845 ft | 15 kts | 25° |
| 2026-04-21 21:09 | 43.56804 | -116.22920 | 2841 ft | 15 kts | 25° |
| 2026-04-21 21:09 | 43.56847 | -116.22819 | 2845 ft | 14 kts | 115° |
| 2026-04-21 21:09 | 43.56804 | -116.22699 | 2845 ft | 14 kts | 116° |
| 2026-04-21 21:10 | 43.56764 | -116.22584 | 2846 ft | 13 kts | 115° |
| 2026-04-21 21:10 | 43.56727 | -116.22472 | 2849 ft | 13 kts | 114° |
| 2026-04-21 21:10 | 43.56689 | -116.22364 | 2849 ft | 12 kts | 115° |
| 2026-04-21 21:10 | 43.56653 | -116.22258 | 2848 ft | 12 kts | 115° |
| 2026-04-21 21:11 | 43.56644 | -116.22152 | 2851 ft | 12 kts | 52° |
| 2026-04-21 21:11 | 43.56687 | -116.22095 | 2856 ft | 5 kts | 17° |
| 2026-04-21 21:11 | 43.56716 | -116.22079 | 2852 ft | 4 kts | 24° |
| 2026-04-21 21:11 | 43.56717 | -116.22078 | 2853 ft | 0 kts | 24° |
| 2026-04-21 21:12 | 43.56728 | -116.22072 | 2854 ft | 0 kts | 24° |